Time;durP1;ratioP1;P1;durP2;ratioP2;P2;SDS_P1;SDS_P2;PMS_P1;PMS_P2;Temp;Humidity;BMP_temperature;BMP_pressure;BME280_temperature;BME280_humidity;BME280_pressure;Samples;Min_cycle;Max_cycle;Signal;HPM_P1;HPM_P2
2020/12/16 00:02:16;;;;;;;5.55;5.05;;;5.80;99.90;;;;;;5027855;28;20713;-72
2020/12/16 00:04:43;;;;;;;5.60;5.10;;;5.80;99.90;;;;;;5028956;28;20210;-72
2020/12/16 00:07:09;;;;;;;5.75;5.25;;;5.80;99.90;;;;;;5110030;23;20626;-76
2020/12/16 00:09:36;;;;;;;5.97;5.38;;;5.80;99.90;;;;;;5052153;28;20201;-77
2020/12/16 00:12:02;;;;;;;5.60;5.15;;;5.80;99.90;;;;;;5051501;28;20201;-77
2020/12/16 00:14:28;;;;;;;6.20;5.60;;;5.80;99.90;;;;;;5050963;28;20201;-77
2020/12/16 00:16:55;;;;;;;6.38;5.78;;;5.80;99.90;;;;;;5061493;28;20205;-77
2020/12/16 00:19:22;;;;;;;7.40;6.70;;;5.70;99.90;;;;;;5054580;28;20205;-77
2020/12/16 00:21:48;;;;;;;5.78;5.25;;;5.70;99.90;;;;;;5054358;28;20201;-77
2020/12/16 00:24:14;;;;;;;6.57;5.97;;;5.70;99.90;;;;;;5053547;28;20229;-77
2020/12/16 00:26:43;;;;;;;7.75;5.60;;;5.60;99.90;;;;;;5053743;28;20649;-77
2020/12/16 00:29:10;;;;;;;6.40;5.82;;;5.70;99.90;;;;;;5052993;28;20245;-76
2020/12/16 00:31:37;;;;;;;6.53;5.80;;;5.70;99.90;;;;;;5050038;28;20221;-76
2020/12/16 00:34:04;;;;;;;6.25;5.53;;;5.60;99.90;;;;;;5052165;28;20221;-78
2020/12/16 00:36:34;;;;;;;7.35;6.65;;;5.60;99.90;;;;;;5049056;28;20677;-76
2020/12/16 00:39:00;;;;;;;6.32;5.65;;;5.60;99.90;;;;;;5049626;28;20201;-76
2020/12/16 00:41:29;;;;;;;6.30;5.70;;;5.60;99.90;;;;;;5040758;28;20230;-76
2020/12/16 00:43:55;;;;;;;6.40;5.70;;;5.60;99.90;;;;;;5029801;28;20249;-76
2020/12/16 00:46:22;;;;;;;7.38;6.25;;;5.60;99.90;;;;;;5030319;28;20209;-76
2020/12/16 00:48:48;;;;;;;5.60;5.10;;;5.60;99.90;;;;;;5030635;28;20612;-76
2020/12/16 00:51:15;;;;;;;7.03;5.40;;;5.60;99.90;;;;;;5030455;28;20260;-76
2020/12/16 00:53:41;;;;;;;7.20;5.85;;;5.50;99.90;;;;;;5029311;28;20741;-76
2020/12/16 00:56:08;;;;;;;6.95;6.25;;;5.50;99.90;;;;;;5030361;28;20572;-76
2020/12/16 00:58:34;;;;;;;7.55;6.13;;;5.50;99.90;;;;;;5030036;28;20210;-76
2020/12/16 01:01:00;;;;;;;6.55;5.68;;;5.40;99.90;;;;;;5030527;28;20236;-76
2020/12/16 01:03:26;;;;;;;6.32;5.63;;;5.40;99.90;;;;;;5029470;28;20221;-76
2020/12/16 01:05:52;;;;;;;9.38;6.35;;;5.40;99.90;;;;;;5029380;28;20255;-75
2020/12/16 01:08:20;;;;;;;7.95;6.93;;;5.40;99.90;;;;;;5029887;28;20297;-76
2020/12/16 01:10:46;;;;;;;7.03;6.32;;;5.50;99.90;;;;;;5029484;28;20224;-76
2020/12/16 01:13:12;;;;;;;7.25;6.30;;;5.50;99.90;;;;;;5029945;28;20222;-77
2020/12/16 01:15:38;;;;;;;7.65;6.43;;;5.50;99.90;;;;;;5039489;28;20205;-78
2020/12/16 01:18:04;;;;;;;8.25;6.30;;;5.60;99.90;;;;;;5040175;28;20548;-78
2020/12/16 01:20:31;;;;;;;8.65;7.25;;;5.60;99.90;;;;;;5039742;28;20361;-78
2020/12/16 01:22:57;;;;;;;7.57;6.78;;;5.70;99.90;;;;;;5040170;28;20245;-77
2020/12/16 01:25:24;;;;;;;7.53;6.72;;;5.70;99.90;;;;;;5038071;28;20618;-77
2020/12/16 01:27:52;;;;;;;8.07;6.57;;;5.80;99.90;;;;;;5032760;28;20213;-76
2020/12/16 01:30:18;;;;;;;6.45;5.85;;;5.80;99.90;;;;;;5036022;28;20678;-77
2020/12/16 01:32:45;;;;;;;8.15;6.85;;;5.90;99.90;;;;;;5031541;28;20225;-76
2020/12/16 01:35:11;;;;;;;8.98;6.30;;;5.90;99.90;;;;;;5032442;28;20205;-77
2020/12/16 01:37:38;;;;;;;7.38;6.57;;;5.90;99.90;;;;;;5032213;28;20212;-77
2020/12/16 01:40:06;;;;;;;8.20;6.90;;;5.90;99.90;;;;;;5031756;28;20229;-77
2020/12/16 01:42:34;;;;;;;11.55;7.63;;;6.00;99.90;;;;;;5031231;28;20272;-77
2020/12/16 01:45:03;;;;;;;7.53;6.47;;;6.00;99.90;;;;;;5032441;28;20205;-77
2020/12/16 01:47:30;;;;;;;8.32;6.78;;;6.00;99.90;;;;;;5032111;28;20201;-77
2020/12/16 01:49:56;;;;;;;8.35;6.80;;;6.00;99.90;;;;;;5032072;28;20205;-77
2020/12/16 01:52:26;;;;;;;7.32;6.40;;;6.10;99.90;;;;;;5033776;28;20232;-77
2020/12/16 01:54:53;;;;;;;8.50;7.40;;;6.10;99.90;;;;;;5035284;28;20206;-77
2020/12/16 01:57:22;;;;;;;7.10;6.35;;;6.10;99.90;;;;;;5035287;28;20229;-77
2020/12/16 01:59:50;;;;;;;8.57;7.38;;;6.10;99.90;;;;;;5035554;28;20593;-77
2020/12/16 02:02:19;;;;;;;8.65;7.25;;;6.10;99.90;;;;;;5032946;28;20242;-77
2020/12/16 02:04:48;;;;;;;6.90;6.20;;;6.10;99.90;;;;;;5034782;28;20217;-77
2020/12/16 02:07:15;;;;;;;6.85;6.15;;;6.10;99.90;;;;;;5031674;28;20217;-77
2020/12/16 02:09:44;;;;;;;7.50;6.75;;;6.10;99.90;;;;;;5032199;28;20228;-76
2020/12/16 02:12:13;;;;;;;7.80;6.30;;;6.10;99.90;;;;;;5030853;28;20201;-77
2020/12/16 02:14:39;;;;;;;6.07;5.47;;;6.10;99.90;;;;;;5031863;28;20209;-77
2020/12/16 02:17:08;;;;;;;7.30;5.93;;;6.10;99.90;;;;;;5031075;28;20205;-77
2020/12/16 02:19:40;;;;;;;7.68;6.30;;;6.20;99.90;;;;;;5030435;28;20262;-77
2020/12/16 02:22:07;;;;;;;6.68;5.97;;;6.10;99.90;;;;;;5029820;28;20205;-75
2020/12/16 02:24:34;;;;;;;7.50;6.32;;;6.10;99.90;;;;;;5028415;28;20615;-76
2020/12/16 02:27:01;;;;;;;7.55;6.32;;;6.10;99.90;;;;;;5029154;28;20205;-76
2020/12/16 02:29:28;;;;;;;6.50;5.88;;;6.10;99.90;;;;;;5028314;28;20228;-76
2020/12/16 02:31:56;;;;;;;7.00;5.65;;;6.10;99.90;;;;;;5027864;28;20206;-77
2020/12/16 02:34:23;;;;;;;6.38;5.80;;;6.10;99.90;;;;;;5031284;28;20259;-77
2020/12/16 02:36:49;;;;;;;6.30;5.70;;;6.10;99.90;;;;;;5031727;28;20228;-77
2020/12/16 02:39:15;;;;;;;7.55;6.10;;;6.10;99.90;;;;;;5031118;28;20562;-77
2020/12/16 02:41:42;;;;;;;7.47;6.15;;;6.10;99.90;;;;;;5030979;28;20228;-77
2020/12/16 02:44:10;;;;;;;7.90;6.45;;;6.10;99.90;;;;;;5030685;28;20221;-77
2020/12/16 02:46:36;;;;;;;8.38;6.25;;;6.10;99.90;;;;;;5030896;28;20201;-76
2020/12/16 02:49:03;;;;;;;7.47;6.15;;;6.10;99.90;;;;;;5031229;28;20206;-77
2020/12/16 02:51:29;;;;;;;7.78;6.65;;;6.10;99.90;;;;;;5030384;28;20206;-77
2020/12/16 02:53:55;;;;;;;8.50;7.13;;;6.20;99.90;;;;;;5030155;28;20244;-76
2020/12/16 02:56:21;;;;;;;9.48;6.93;;;6.20;99.90;;;;;;5034017;28;21042;-77
2020/12/16 02:58:48;;;;;;;8.57;6.70;;;6.20;99.90;;;;;;5035217;28;20202;-77
2020/12/16 03:01:15;;;;;;;7.53;6.18;;;6.30;99.90;;;;;;5034862;28;20700;-76
2020/12/16 03:03:41;;;;;;;13.07;6.43;;;6.30;99.90;;;;;;5033159;28;20594;-77
2020/12/16 03:06:07;;;;;;;7.60;6.72;;;6.30;99.90;;;;;;5033766;28;20205;-76
2020/12/16 03:08:33;;;;;;;9.40;7.70;;;6.30;99.90;;;;;;5034152;28;20228;-76
2020/12/16 03:10:59;;;;;;;7.82;6.90;;;6.30;99.90;;;;;;5034967;28;20198;-76
2020/12/16 03:13:25;;;;;;;10.52;6.32;;;6.30;99.90;;;;;;5031515;28;20222;-75
2020/12/16 03:15:52;;;;;;;7.63;6.82;;;6.30;99.90;;;;;;5031989;28;20209;-76
2020/12/16 03:18:19;;;;;;;7.50;6.72;;;6.40;99.90;;;;;;5031742;28;20201;-76
2020/12/16 03:20:45;;;;;;;7.38;6.57;;;6.30;99.90;;;;;;5031715;28;20222;-76
2020/12/16 03:23:11;;;;;;;8.57;6.53;;;6.30;99.90;;;;;;5031063;28;20232;-76
2020/12/16 03:25:37;;;;;;;6.88;6.15;;;6.30;99.90;;;;;;5031851;28;20217;-76
2020/12/16 03:28:03;;;;;;;7.85;6.55;;;6.40;99.90;;;;;;5031947;28;20197;-76
2020/12/16 03:30:30;;;;;;;7.25;6.55;;;6.40;99.90;;;;;;5031333;28;20206;-76
2020/12/16 03:32:56;;;;;;;7.60;6.60;;;6.40;99.90;;;;;;5031400;28;20232;-77
2020/12/16 03:35:23;;;;;;;7.18;6.15;;;6.40;99.90;;;;;;5031530;28;21129;-76
2020/12/16 03:37:49;;;;;;;8.57;6.63;;;6.40;99.90;;;;;;5031431;28;20248;-76
2020/12/16 03:40:16;;;;;;;7.55;6.80;;;6.40;99.90;;;;;;5031226;28;20291;-76
2020/12/16 03:42:42;;;;;;;7.63;6.82;;;6.40;99.90;;;;;;5032104;28;20221;-77
2020/12/16 03:45:08;;;;;;;8.73;6.75;;;6.40;99.90;;;;;;5033606;28;20202;-77
2020/12/16 03:47:34;;;;;;;7.40;6.70;;;6.40;99.90;;;;;;5032938;28;20289;-76
2020/12/16 03:50:00;;;;;;;8.50;6.45;;;6.40;99.90;;;;;;5034075;28;20198;-77
2020/12/16 03:52:28;;;;;;;6.85;6.15;;;6.40;99.90;;;;;;5032295;28;20597;-77
2020/12/16 03:54:54;;;;;;;7.38;6.50;;;6.40;99.90;;;;;;5033847;28;20212;-77
2020/12/16 03:57:20;;;;;;;7.63;6.82;;;6.40;99.90;;;;;;5034562;28;20252;-77
2020/12/16 03:59:46;;;;;;;8.90;7.88;;;6.40;99.90;;;;;;5034053;28;20689;-77
2020/12/16 04:02:12;;;;;;;10.10;8.18;;;6.40;99.90;;;;;;5033459;28;20226;-77
2020/12/16 04:04:39;;;;;;;8.82;6.55;;;6.50;99.90;;;;;;5033846;28;20216;-77
2020/12/16 04:07:05;;;;;;;9.48;6.95;;;6.50;99.90;;;;;;5033929;28;20711;-76
2020/12/16 04:09:32;;;;;;;8.93;7.00;;;6.40;99.90;;;;;;5033903;28;20209;-77
2020/12/16 04:11:58;;;;;;;7.80;6.97;;;6.40;99.90;;;;;;5033117;28;20198;-77
2020/12/16 04:14:24;;;;;;;7.35;6.55;;;6.40;99.90;;;;;;5033834;28;20206;-76
2020/12/16 04:16:51;;;;;;;8.55;6.95;;;6.40;99.90;;;;;;5034842;28;20205;-77
2020/12/16 04:19:17;;;;;;;8.27;6.47;;;6.40;99.90;;;;;;5032655;28;20248;-77
2020/12/16 04:21:43;;;;;;;9.05;6.90;;;6.30;99.90;;;;;;5032156;28;20222;-76
2020/12/16 04:24:09;;;;;;;7.40;6.65;;;6.30;99.90;;;;;;5032454;28;20244;-76
2020/12/16 04:26:36;;;;;;;7.78;6.88;;;6.30;99.90;;;;;;5033071;28;20214;-77
2020/12/16 04:29:04;;;;;;;7.15;6.45;;;6.20;99.90;;;;;;5037658;28;20210;-76
2020/12/16 04:31:30;;;;;;;9.40;6.47;;;6.10;99.90;;;;;;5036200;28;20206;-77
2020/12/16 04:33:56;;;;;;;7.65;6.53;;;6.10;99.90;;;;;;5035566;28;20210;-77
2020/12/16 04:36:23;;;;;;;7.35;6.40;;;6.00;99.90;;;;;;5034600;28;20206;-78
2020/12/16 04:38:49;;;;;;;7.15;6.45;;;5.90;99.90;;;;;;5030592;28;20206;-76
2020/12/16 04:41:16;;;;;;;7.90;6.68;;;5.90;99.90;;;;;;5028148;28;20225;-74
2020/12/16 04:43:44;;;;;;;7.60;6.80;;;5.90;99.90;;;;;;5027381;28;20233;-76
2020/12/16 04:46:14;;;;;;;7.35;6.55;;;5.80;99.90;;;;;;5028773;28;20221;-76
2020/12/16 04:48:42;;;;;;;7.80;7.00;;;5.70;99.90;;;;;;5027301;28;20201;-74
2020/12/16 04:51:08;;;;;;;7.75;6.78;;;5.70;99.90;;;;;;5027034;28;20201;-75
2020/12/16 04:53:37;;;;;;;9.07;6.70;;;5.60;99.90;;;;;;5028383;28;20802;-75
2020/12/16 04:56:04;;;;;;;7.75;6.95;;;5.70;99.90;;;;;;5030836;28;20681;-76
2020/12/16 04:58:31;;;;;;;7.07;6.18;;;5.60;99.90;;;;;;5030698;28;20391;-76
2020/12/16 05:00:58;;;;;;;6.72;6.13;;;5.60;99.90;;;;;;5030321;28;20256;-74
2020/12/16 05:03:25;;;;;;;6.28;5.63;;;5.60;99.90;;;;;;5030901;28;20225;-75
2020/12/16 05:05:52;;;;;;;8.65;7.32;;;5.50;99.90;;;;;;5030748;28;20229;-75
2020/12/16 05:08:18;;;;;;;6.93;6.28;;;5.50;99.90;;;;;;5030599;28;20212;-74
2020/12/16 05:10:47;;;;;;;8.43;7.10;;;5.40;99.90;;;;;;5030833;28;20623;-75
2020/12/16 05:13:15;;;;;;;6.75;6.00;;;5.40;99.90;;;;;;5029644;28;20225;-76
2020/12/16 05:15:44;;;;;;;9.10;8.07;;;5.40;99.90;;;;;;5030743;28;20208;-77
2020/12/16 05:18:16;;;;;;;7.90;7.10;;;5.40;99.90;;;;;;5030202;28;20216;-75
2020/12/16 05:20:44;;;;;;;8.95;7.40;;;5.50;99.90;;;;;;5029311;28;20221;-77
2020/12/16 05:23:11;;;;;;;11.20;8.07;;;5.50;99.90;;;;;;5015518;28;20299;-75
2020/12/16 05:25:38;;;;;;;8.27;7.38;;;5.50;99.90;;;;;;5009100;28;20697;-76
2020/12/16 05:28:05;;;;;;;8.38;7.57;;;5.50;99.90;;;;;;5010798;28;20209;-76
2020/12/16 05:30:33;;;;;;;9.48;8.27;;;5.50;99.90;;;;;;5009143;28;20221;-76
2020/12/16 05:33:02;;;;;;;9.77;8.07;;;5.50;99.90;;;;;;5006714;28;20728;-74
2020/12/16 05:35:31;;;;;;;9.02;7.78;;;5.50;99.90;;;;;;5006839;28;20542;-75
2020/12/16 05:38:05;;;;;;;10.57;8.85;;;5.40;99.90;;;;;;5007186;28;20253;-78
2020/12/16 05:40:34;;;;;;;10.88;8.05;;;5.40;99.90;;;;;;5009118;28;20222;-76
2020/12/16 05:43:01;;;;;;;8.65;7.35;;;5.40;99.90;;;;;;5027354;28;20240;-76
2020/12/16 05:45:28;;;;;;;9.07;7.35;;;5.50;99.90;;;;;;5029866;28;20198;-77
2020/12/16 05:48:00;;;;;;;10.48;7.82;;;5.50;99.90;;;;;;5032079;28;20205;-77
2020/12/16 05:50:36;;;;;;;10.25;8.55;;;5.50;99.90;;;;;;5031007;28;20198;-77
2020/12/16 05:53:17;;;;;;;10.50;8.13;;;5.50;99.90;;;;;;5031773;28;20247;-77
2020/12/16 05:55:48;;;;;;;10.57;7.40;;;5.50;99.90;;;;;;5032003;28;20229;-76
2020/12/16 05:58:16;;;;;;;10.90;7.80;;;5.50;99.90;;;;;;5031366;28;20210;-77
2020/12/16 06:00:44;;;;;;;9.35;7.82;;;5.50;99.90;;;;;;5031500;28;20221;-76
2020/12/16 06:03:16;;;;;;;9.70;7.63;;;5.60;99.90;;;;;;5027702;28;20607;-76
2020/12/16 06:05:46;;;;;;;8.43;7.10;;;5.60;99.90;;;;;;5029131;28;20238;-76
2020/12/16 06:08:13;;;;;;;9.55;7.53;;;5.60;99.90;;;;;;5095964;23;20288;-73
2020/12/16 06:10:42;;;;;;;8.63;7.25;;;5.50;99.90;;;;;;5028693;28;20194;-73
2020/12/16 06:13:12;;;;;;;8.43;7.47;;;5.50;99.90;;;;;;5028019;28;20640;-73
2020/12/16 06:15:53;;;;;;;8.65;6.80;;;5.50;99.90;;;;;;5028145;28;20202;-72
2020/12/16 06:18:21;;;;;;;7.70;6.90;;;5.50;99.90;;;;;;5029043;28;20563;-72
2020/12/16 06:20:49;;;;;;;8.80;7.03;;;5.40;99.90;;;;;;5028047;28;20249;-73
2020/12/16 06:23:21;;;;;;;7.75;6.95;;;5.40;99.90;;;;;;5028102;28;20221;-73
2020/12/16 06:25:50;;;;;;;8.98;8.07;;;5.50;99.90;;;;;;5028448;28;20201;-73
2020/12/16 06:28:17;;;;;;;8.10;7.25;;;5.50;99.90;;;;;;5028058;28;20296;-72
2020/12/16 06:30:51;;;;;;;9.55;7.70;;;5.50;99.90;;;;;;5028447;28;20209;-72
2020/12/16 06:33:26;;;;;;;7.47;6.72;;;5.60;99.90;;;;;;5027567;28;20220;-72
2020/12/16 06:35:59;;;;;;;8.32;7.45;;;5.60;99.90;;;;;;5028401;28;20204;-72
2020/12/16 06:38:26;;;;;;;8.43;7.43;;;5.60;99.90;;;;;;5028559;28;20212;-71
2020/12/16 06:40:55;;;;;;;8.65;7.40;;;5.70;99.90;;;;;;5027400;28;20221;-72
2020/12/16 06:43:37;;;;;;;8.25;7.40;;;5.70;99.90;;;;;;5027965;28;20279;-72
2020/12/16 06:46:05;;;;;;;10.43;7.53;;;5.70;99.90;;;;;;5026718;28;20209;-72
2020/12/16 06:48:33;;;;;;;8.68;7.78;;;5.70;99.90;;;;;;5028747;28;20205;-72
2020/12/16 06:51:16;;;;;;;7.57;6.78;;;5.70;99.90;;;;;;5027064;28;20740;-72
2020/12/16 06:53:43;;;;;;;7.90;7.10;;;5.70;99.90;;;;;;5027843;28;20230;-72
2020/12/16 06:56:09;;;;;;;7.72;6.93;;;5.70;99.90;;;;;;5028240;28;20206;-71
2020/12/16 06:58:36;;;;;;;8.57;7.78;;;5.70;99.90;;;;;;5028664;28;20212;-72
2020/12/16 07:01:12;;;;;;;9.60;7.68;;;5.60;99.90;;;;;;5027941;28;20693;-72
2020/12/16 07:03:38;;;;;;;7.93;7.13;;;5.60;99.90;;;;;;5027319;28;20661;-73
2020/12/16 07:06:04;;;;;;;7.90;6.50;;;5.60;99.90;;;;;;5028288;28;20198;-72
2020/12/16 07:08:31;;;;;;;8.00;7.20;;;5.60;99.90;;;;;;5028303;28;20636;-72
2020/12/16 07:10:58;;;;;;;8.10;7.30;;;5.70;99.90;;;;;;5028191;28;20702;-72
2020/12/16 07:13:27;;;;;;;7.82;6.43;;;5.60;99.90;;;;;;5026731;28;20229;-72
2020/12/16 07:16:03;;;;;;;6.70;6.00;;;5.60;99.90;;;;;;5027953;28;20206;-72
2020/12/16 07:18:43;;;;;;;7.78;7.07;;;5.60;99.90;;;;;;5028183;28;20205;-72
2020/12/16 07:21:23;;;;;;;7.65;6.80;;;5.70;99.90;;;;;;5027940;28;20234;-72
2020/12/16 07:24:01;;;;;;;9.95;7.75;;;5.70;99.90;;;;;;5027252;28;20217;-73
2020/12/16 07:26:28;;;;;;;7.75;6.95;;;5.70;99.90;;;;;;5028087;28;20209;-72
2020/12/16 07:28:57;;;;;;;8.25;7.43;;;5.60;99.90;;;;;;5027351;28;20213;-72
2020/12/16 07:31:23;;;;;;;7.32;6.60;;;5.60;99.90;;;;;;5027640;28;20206;-72
2020/12/16 07:33:50;;;;;;;8.13;7.32;;;5.60;99.90;;;;;;5027203;28;20222;-72
2020/12/16 07:36:17;;;;;;;7.82;7.07;;;5.60;99.90;;;;;;5027778;28;20681;-73
2020/12/16 07:38:48;;;;;;;7.28;6.57;;;5.60;99.90;;;;;;5027751;28;20209;-72
2020/12/16 07:41:26;;;;;;;7.25;6.55;;;5.60;99.90;;;;;;5028085;28;20701;-72
2020/12/16 07:43:53;;;;;;;7.22;6.55;;;5.60;99.90;;;;;;5030502;28;20255;-72
2020/12/16 07:46:21;;;;;;;6.25;5.65;;;5.60;99.90;;;;;;5031521;28;20205;-72
2020/12/16 07:48:47;;;;;;;7.30;6.28;;;5.60;99.90;;;;;;5013556;28;20213;-72
2020/12/16 07:51:14;;;;;;;6.82;6.13;;;5.60;99.90;;;;;;5011756;28;20624;-72
2020/12/16 07:53:45;;;;;;;6.43;5.82;;;5.60;99.90;;;;;;5010655;28;20233;-72
2020/12/16 07:56:12;;;;;;;6.88;6.05;;;5.70;99.90;;;;;;5011917;28;20213;-72
2020/12/16 07:58:39;;;;;;;6.43;5.70;;;5.60;99.90;;;;;;5011535;28;20325;-72
2020/12/16 08:01:06;;;;;;;5.95;5.35;;;5.70;99.90;;;;;;5011487;28;20637;-73
2020/12/16 08:03:33;;;;;;;9.68;5.20;;;5.70;99.90;;;;;;5010637;28;20222;-72
2020/12/16 08:06:00;;;;;;;6.85;5.80;;;5.70;99.90;;;;;;5017692;28;20229;-72
2020/12/16 08:08:27;;;;;;;6.20;5.60;;;5.70;99.90;;;;;;5031020;28;20221;-72
2020/12/16 08:10:53;;;;;;;6.18;5.55;;;5.80;99.90;;;;;;5030372;28;20198;-72
2020/12/16 08:13:22;;;;;;;7.45;6.22;;;5.80;99.90;;;;;;5030099;28;20229;-72
2020/12/16 08:15:49;;;;;;;8.57;6.35;;;5.80;99.90;;;;;;5030368;28;20208;-71
2020/12/16 08:18:17;;;;;;;6.95;5.53;;;5.80;99.90;;;;;;5030727;28;20204;-72
2020/12/16 08:20:43;;;;;;;5.45;4.90;;;5.90;99.90;;;;;;5030248;28;20223;-71
2020/12/16 08:23:13;;;;;;;6.40;5.80;;;5.90;99.90;;;;;;5030254;28;20604;-72
2020/12/16 08:25:41;;;;;;;6.30;5.32;;;6.00;99.90;;;;;;5030996;28;20208;-72
2020/12/16 08:28:07;;;;;;;7.45;5.70;;;6.10;99.90;;;;;;5030556;28;20778;-72
2020/12/16 08:30:37;;;;;;;5.93;5.35;;;6.20;99.90;;;;;;5030366;28;20212;-72
2020/12/16 08:33:07;;;;;;;6.70;5.50;;;6.20;99.90;;;;;;5029589;28;20283;-72
2020/12/16 08:35:37;;;;;;;7.13;5.30;;;6.20;99.90;;;;;;5030609;28;20201;-71
2020/12/16 08:38:06;;;;;;;5.93;5.32;;;6.20;99.90;;;;;;5030084;28;20210;-71
2020/12/16 08:40:37;;;;;;;7.28;5.70;;;6.30;99.90;;;;;;5030294;28;20218;-72
2020/12/16 08:43:17;;;;;;;8.82;5.55;;;6.40;99.90;;;;;;5028804;28;20221;-72
2020/12/16 08:45:44;;;;;;;6.82;6.10;;;6.50;99.90;;;;;;5030062;28;20289;-72
2020/12/16 08:48:11;;;;;;;5.55;5.05;;;6.60;99.90;;;;;;5030041;28;20205;-71
2020/12/16 08:50:38;;;;;;;6.60;5.63;;;6.80;99.90;;;;;;5030404;28;20209;-72
2020/12/16 08:53:04;;;;;;;6.20;5.60;;;7.20;99.90;;;;;;5028179;28;20214;-72
2020/12/16 08:55:37;;;;;;;5.90;5.10;;;7.50;99.90;;;;;;5029906;28;20233;-72
2020/12/16 08:58:03;;;;;;;4.57;4.18;;;7.70;99.90;;;;;;5029680;28;20629;-73
2020/12/16 09:00:32;;;;;;;5.43;4.60;;;7.90;99.90;;;;;;5029930;28;20371;-72
2020/12/16 09:03:07;;;;;;;4.97;4.43;;;8.00;99.90;;;;;;5028954;28;20275;-72
2020/12/16 09:05:36;;;;;;;5.30;4.80;;;8.00;99.90;;;;;;5029828;28;20488;-72
2020/12/16 09:08:11;;;;;;;5.55;5.00;;;8.00;99.90;;;;;;5028591;28;20217;-72
2020/12/16 09:10:38;;;;;;;5.28;4.78;;;8.00;99.90;;;;;;5029799;28;20198;-72
2020/12/16 09:13:13;;;;;;;4.65;4.07;;;7.90;99.90;;;;;;5028777;28;20709;-72
2020/12/16 09:15:42;;;;;;;4.72;4.32;;;7.80;99.90;;;;;;5029451;28;20200;-72
2020/12/16 09:18:09;;;;;;;6.32;4.30;;;7.60;99.90;;;;;;5030019;28;20551;-72
2020/12/16 09:20:37;;;;;;;4.22;3.83;;;7.70;99.90;;;;;;5029432;28;20218;-72
2020/12/16 09:23:03;;;;;;;4.10;3.70;;;7.90;99.90;;;;;;5029098;28;20229;-72
2020/12/16 09:25:29;;;;;;;4.03;3.50;;;8.10;99.90;;;;;;5029621;28;20206;-72
2020/12/16 09:27:57;;;;;;;4.45;4.05;;;8.10;99.90;;;;;;5029080;28;20210;-73
2020/12/16 09:30:27;;;;;;;4.10;3.75;;;8.20;99.90;;;;;;5029462;28;20700;-74
2020/12/16 09:32:53;;;;;;;4.10;3.70;;;8.30;99.90;;;;;;5027301;28;20225;-72
2020/12/16 09:35:19;;;;;;;4.50;4.10;;;8.40;99.90;;;;;;5029576;28;20208;-74
2020/12/16 09:37:47;;;;;;;4.30;3.90;;;9.10;99.90;;;;;;5029189;28;20301;-74
2020/12/16 09:40:16;;;;;;;3.17;2.88;;;11.20;99.90;;;;;;5029359;28;20300;-72
2020/12/16 09:42:54;;;;;;;7.30;3.40;;;14.00;99.90;;;;;;5028089;28;20225;-72
2020/12/16 09:45:21;;;;;;;5.07;3.30;;;16.60;99.90;;;;;;5028359;28;20689;-72
2020/12/16 09:47:49;;;;;;;4.13;3.73;;;18.80;99.90;;;;;;5028800;28;20217;-72
2020/12/16 09:50:16;;;;;;;3.90;3.40;;;19.90;99.90;;;;;;5028971;28;20474;-72
2020/12/16 09:52:43;;;;;;;3.27;3.07;;;20.60;99.90;;;;;;5028154;28;20476;-72
2020/12/16 09:55:15;;;;;;;3.30;2.93;;;21.10;99.90;;;;;;5028864;28;20464;-72
2020/12/16 09:57:42;;;;;;;4.13;3.27;;;21.40;99.70;;;;;;5028291;28;20836;-72
2020/12/16 10:00:09;;;;;;;4.93;3.37;;;20.70;99.70;;;;;;5028721;28;20464;-72
2020/12/16 10:02:35;;;;;;;3.90;3.30;;;20.60;99.90;;;;;;5028009;28;20483;-72
2020/12/16 10:05:01;;;;;;;3.40;3.10;;;21.20;99.60;;;;;;5028309;28;20951;-72
2020/12/16 10:07:32;;;;;;;3.73;3.23;;;21.90;99.40;;;;;;5028763;28;20464;-72
2020/12/16 10:09:58;;;;;;;3.67;3.37;;;23.00;98.60;;;;;;5027434;28;20518;-72
2020/12/16 10:12:25;;;;;;;3.87;3.47;;;24.00;96.60;;;;;;5027864;28;20473;-72
2020/12/16 10:14:52;;;;;;;3.50;3.20;;;24.20;94.80;;;;;;5028403;28;20495;-71
2020/12/16 10:17:24;;;;;;;3.93;3.60;;;24.00;94.60;;;;;;5029105;28;20460;-72
2020/12/16 10:19:51;;;;;;;3.83;3.20;;;23.90;95.10;;;;;;5028081;28;20563;-72
2020/12/16 10:22:18;;;;;;;3.83;3.53;;;24.10;94.30;;;;;;5027032;28;20484;-72
2020/12/16 10:24:44;;;;;;;4.10;3.70;;;23.30;94.90;;;;;;5028158;28;20509;-72
2020/12/16 10:27:10;;;;;;;3.97;3.57;;;23.40;95.10;;;;;;5028863;28;20518;-72
2020/12/16 10:29:37;;;;;;;4.00;3.53;;;23.80;95.10;;;;;;5028304;28;20472;-71
2020/12/16 10:32:04;;;;;;;4.10;3.70;;;23.80;94.50;;;;;;5027702;28;20846;-72
2020/12/16 10:34:30;;;;;;;4.13;3.73;;;23.40;95.40;;;;;;5027875;28;20533;-72
2020/12/16 10:36:56;;;;;;;4.27;3.87;;;23.20;96.20;;;;;;5027954;28;20460;-72
2020/12/16 10:39:23;;;;;;;4.30;3.90;;;23.00;95.40;;;;;;5028604;28;20472;-72
2020/12/16 10:41:50;;;;;;;4.50;4.10;;;22.90;95.20;;;;;;5026672;28;20484;-72
2020/12/16 10:44:17;;;;;;;5.07;4.43;;;22.70;94.80;;;;;;5028419;28;21006;-72
2020/12/16 10:46:48;;;;;;;4.43;4.03;;;22.30;94.70;;;;;;5027523;28;20464;-74
2020/12/16 10:49:15;;;;;;;4.43;3.90;;;22.50;94.90;;;;;;5029863;28;20491;-71
2020/12/16 10:51:41;;;;;;;4.93;4.53;;;23.00;94.70;;;;;;5027492;28;20952;-71
2020/12/16 10:54:07;;;;;;;3.83;3.53;;;22.90;94.50;;;;;;5028386;28;20626;-71
2020/12/16 10:56:34;;;;;;;5.30;3.70;;;23.60;94.30;;;;;;5028714;28;20466;-72
2020/12/16 10:59:01;;;;;;;4.73;4.20;;;23.60;93.50;;;;;;5027528;28;20963;-71
2020/12/16 11:01:28;;;;;;;4.40;4.10;;;23.00;93.50;;;;;;5027774;28;20488;-73
2020/12/16 11:03:54;;;;;;;4.63;3.77;;;23.10;94.60;;;;;;5027353;28;20575;-71
2020/12/16 11:06:20;;;;;;;4.47;3.70;;;23.50;94.20;;;;;;5028369;28;20555;-71
2020/12/16 11:08:47;;;;;;;3.80;3.50;;;23.70;93.60;;;;;;5027858;28;20464;-71
2020/12/16 11:11:13;;;;;;;5.43;4.03;;;23.70;93.60;;;;;;5027924;28;20833;-71
2020/12/16 11:13:39;;;;;;;4.40;4.00;;;22.70;94.00;;;;;;5027646;28;20491;-71
2020/12/16 11:16:06;;;;;;;3.93;3.60;;;22.40;94.00;;;;;;5029431;28;21083;-72
2020/12/16 11:18:32;;;;;;;3.87;3.57;;;22.20;94.30;;;;;;5032096;28;20468;-71
2020/12/16 11:20:58;;;;;;;4.43;4.00;;;21.90;94.60;;;;;;5031216;28;20476;-72
2020/12/16 11:23:25;;;;;;;4.03;3.63;;;22.30;94.30;;;;;;5030958;28;20479;-71
2020/12/16 11:25:51;;;;;;;4.47;4.07;;;22.40;93.70;;;;;;5031473;28;20483;-72
2020/12/16 11:28:17;;;;;;;5.80;5.20;;;22.10;94.00;;;;;;5031956;28;20975;-72
2020/12/16 11:30:43;;;;;;;3.40;3.10;;;21.20;94.80;;;;;;5031933;28;20502;-72
2020/12/16 11:33:10;;;;;;;4.03;3.73;;;21.00;95.90;;;;;;5030260;28;20794;-72
2020/12/16 11:35:36;;;;;;;3.90;3.60;;;21.00;96.50;;;;;;5031234;28;20472;-71
2020/12/16 11:38:03;;;;;;;4.00;3.60;;;21.50;95.30;;;;;;5031216;28;20468;-71
2020/12/16 11:40:29;;;;;;;4.00;3.60;;;21.70;95.20;;;;;;5031593;28;20487;-72
2020/12/16 11:42:55;;;;;;;4.20;3.87;;;22.10;94.80;;;;;;5030480;28;20476;-72
2020/12/16 11:45:21;;;;;;;4.30;3.97;;;21.70;94.80;;;;;;5031427;28;20968;-72
2020/12/16 11:47:47;;;;;;;5.07;4.57;;;21.70;95.30;;;;;;5031090;28;20452;-74
2020/12/16 11:50:14;;;;;;;4.50;4.10;;;21.70;95.30;;;;;;5031538;28;20835;-71
2020/12/16 11:52:40;;;;;;;4.97;4.47;;;22.00;95.30;;;;;;5030402;28;20537;-71
2020/12/16 11:55:07;;;;;;;5.00;4.33;;;22.10;94.90;;;;;;5031109;28;20627;-72
2020/12/16 11:57:33;;;;;;;4.53;4.00;;;21.70;95.00;;;;;;5031419;28;20923;-72
2020/12/16 11:59:59;;;;;;;4.87;4.47;;;21.90;95.50;;;;;;5030232;28;20468;-70
2020/12/16 12:02:25;;;;;;;4.63;4.23;;;21.50;94.60;;;;;;5030132;28;20488;-72
2020/12/16 12:04:52;;;;;;;4.27;3.87;;;20.60;95.60;;;;;;5030796;28;20464;-72
2020/12/16 12:07:19;;;;;;;5.07;4.37;;;20.30;96.10;;;;;;5030961;28;20474;-71
2020/12/16 12:12:13;;;;;;;5.37;4.87;;;19.90;97.00;;;;;;5008186;28;20517;-77
2020/12/16 12:14:39;;;;;;;5.30;4.80;;;20.00;96.60;;;;;;5011745;28;20538;-77
2020/12/16 12:17:05;;;;;;;5.10;4.70;;;19.70;97.20;;;;;;5011880;28;20488;-77
2020/12/16 12:19:33;;;;;;;6.93;4.63;;;19.90;97.20;;;;;;5011206;28;20461;-77
2020/12/16 12:22:00;;;;;;;6.20;4.67;;;19.80;96.70;;;;;;5010742;28;20487;-77
2020/12/16 12:24:27;;;;;;;6.30;5.00;;;19.60;97.10;;;;;;5010620;28;20535;-77
2020/12/16 12:26:53;;;;;;;4.20;3.80;;;19.50;97.30;;;;;;5010584;28;20484;-77
2020/12/16 12:29:19;;;;;;;4.37;3.97;;;19.50;97.70;;;;;;5010977;28;20466;-77
2020/12/16 12:31:45;;;;;;;4.03;3.73;;;19.40;97.80;;;;;;5010505;28;20461;-77
2020/12/16 12:34:12;;;;;;;4.37;3.97;;;19.30;97.90;;;;;;5010925;28;20481;-77
2020/12/16 12:36:38;;;;;;;4.70;4.27;;;19.00;98.20;;;;;;5010753;28;20469;-76
2020/12/16 12:39:04;;;;;;;4.53;4.13;;;18.50;98.60;;;;;;5010699;28;20469;-77
2020/12/16 12:41:32;;;;;;;5.20;4.70;;;18.70;98.80;;;;;;5010066;28;20551;-77
2020/12/16 12:43:58;;;;;;;4.60;4.20;;;18.60;98.70;;;;;;5010752;28;20481;-77
2020/12/16 12:46:25;;;;;;;5.30;4.80;;;18.30;98.90;;;;;;5010459;28;20476;-77
2020/12/16 12:48:51;;;;;;;4.57;4.17;;;18.30;98.70;;;;;;5010725;28;20497;-76
2020/12/16 12:51:17;;;;;;;4.67;4.23;;;18.00;98.90;;;;;;5010089;28;20465;-76
2020/12/16 12:53:45;;;;;;;5.00;4.10;;;17.70;99.20;;;;;;5009725;28;20485;-76
2020/12/16 12:56:12;;;;;;;5.50;4.57;;;17.50;99.60;;;;;;5010540;28;21388;-76
2020/12/16 12:58:39;;;;;;;4.40;4.00;;;17.20;99.50;;;;;;5010488;28;20465;-77